Ana Sayfa
METAR-TAF:

METAR-TAF

Havaalanları :

Mountain Empire Airport

Marion / Wytheville, Virginia, Amerika Birleşik Devletleri

Enlem: 36-54N, Boylam: 081-21W, yükseklik: 780 m

Güncel hava durumu gözlemi

Rapor saat 09:55 UTC de 14 dakika önce yapıldı.
Sakin rüzgar
Sıcaklık 8°C
Nem 100%
Basınç 1009 hPa
Görüş mesafesi: 16.1 km
2100 ft yükseklikte parçalı bulutlu
3100 ft yükseklikte parçalı çok bulutlu
3900 ft yükseklikte çok bulutlu

METAR: KMKJ 250955Z AUTO 00000KT 10SM SCT021 BKN031 OVC039 08/08 A2979 RMK AO2 T00820082

Saat: 05:09 (10:09 UTC)


TAF: eksik

4.000'den fazla havaalanı için hava durumu gözlemleri ve tahminleri (METAR ve TAF raporları).

Kullanılabilir istasyonlar harita üzerinde sarı ve kırmızı noktalarla gösterilir.

İstasyonun adını görmek için fareyi noktanın üzerinde gezdirin.

Sonrasında hava gözlem ve tahminlerini görmek için tıklayın.

Haritayı değiştirmek için: yaklaştırmak için siyah artı işaretli yeşil düğmeye ve uzaklaştırmak için de eksi işaretli düğmeye hızla tıklayın; bitişik haritalar için yeşil okları kullanın.


METAR-TAF: